^^

..:: Storico WU ::..




Lo storico viene creato da WUnderground con i dati che la stazione Meteomincio invia al loro server. L' aggiornamento viene fatto ogni 5 minuti circa, tuttavia possono esserci intervalli pił ampi a causa di errori, interruzioni di servizio o problemi nell' invio tramite FTP.


Storico stazione MeteoMincio
Giorno Sommario per Maggio 03, 2022 Unità:  Inglese    Metrico   Entrambi
Giorno Settimana Mese Anno
  Max: Min: Media:
Temperatura: 75.2 °F 50 °F 63.3 °F
Dew Point: 57.2 °F 46.4 °F 51.4 °F
Umidità: 88% 44% 67%
Velocità vento: 12.4mph 0mph 3.5mph
Raffica: 17.4mph - -
Direzione- - SSW
Pressione: 30 in 29.9 in -
Precipitazioni: 0 in    
 
 
Tabulato Dati per Maggio 03, 2022
Ora Temperatura Dew Point Pressione Direzione Velocità vento Raffica Umidità Intensità pioggia (oraria) Info solare Situazione
00:04 55.4 °F 50 °F 29.9 in WNW 2.5 mph 3.7 mph 78% 0 in 0.00 W/m2 unknown
00:09 57.2 °F 50 °F 29.9 in NNW 2.5 mph 3.7 mph 79% 0 in 0.00 W/m2 unknown
00:14 57.2 °F 50 °F 29.9 in NNW 1.9 mph 3.1 mph 78% 0 in 0.00 W/m2 unknown
00:19 57.2 °F 50 °F 29.9 in NNW 1.2 mph 2.5 mph 78% 0 in 0.00 W/m2 unknown
00:24 57.2 °F 50 °F 29.9 in NNW 1.2 mph 2.5 mph 78% 0 in 0.00 W/m2 unknown
00:29 55.4 °F 50 °F 29.9 in NW 1.2 mph 1.9 mph 78% 0 in 0.00 W/m2 unknown
00:34 55.4 °F 50 °F 29.9 in NW 1.2 mph 2.5 mph 79% 0 in 0.00 W/m2 unknown
00:39 55.4 °F 50 °F 29.9 in WNW 2.5 mph 3.7 mph 79% 0 in 0.00 W/m2 unknown
00:44 55.4 °F 48.2 °F 29.9 in WNW 1.9 mph 3.7 mph 79% 0 in 0.00 W/m2 unknown
00:49 55.4 °F 48.2 °F 29.9 in WNW 1.9 mph 3.7 mph 79% 0 in 0.00 W/m2 unknown
00:54 55.4 °F 48.2 °F 29.9 in NW 1.9 mph 3.7 mph 79% 0 in 0.00 W/m2 unknown
00:59 55.4 °F 48.2 °F 29.9 in WNW 1.9 mph 3.1 mph 78% 0 in 0.00 W/m2 unknown
01:04 55.4 °F 48.2 °F 29.9 in NW 1.9 mph 3.7 mph 77% 0 in 0.00 W/m2 unknown
01:09 55.4 °F 48.2 °F 29.9 in NW 2.5 mph 3.7 mph 78% 0 in 0.00 W/m2 unknown
01:14 55.4 °F 48.2 °F 29.9 in NW 2.5 mph 3.7 mph 78% 0 in 0.00 W/m2 unknown
01:19 55.4 °F 48.2 °F 29.9 in NW 2.5 mph 3.7 mph 77% 0 in 0.00 W/m2 unknown
01:24 55.4 °F 48.2 °F 29.9 in NW 1.9 mph 3.7 mph 77% 0 in 0.00 W/m2 unknown
01:29 57.2 °F 50 °F 29.9 in NW 1.9 mph 3.7 mph 77% 0 in 0.00 W/m2 unknown
01:34 57.2 °F 50 °F 29.9 in NW 1.2 mph 3.1 mph 77% 0 in 0.00 W/m2 unknown
01:39 57.2 °F 48.2 °F 29.9 in NW 1.2 mph 2.5 mph 77% 0 in 0.00 W/m2 unknown
01:44 57.2 °F 50 °F 29.9 in NW 1.9 mph 2.5 mph 77% 0 in 0.00 W/m2 unknown
01:49 57.2 °F 50 °F 29.9 in NW 1.9 mph 3.7 mph 77% 0 in 0.00 W/m2 unknown
01:54 57.2 °F 50 °F 29.9 in NW 1.9 mph 3.7 mph 77% 0 in 0.00 W/m2 unknown
01:59 57.2 °F 50 °F 29.9 in NNW 1.9 mph 3.7 mph 77% 0 in 0.00 W/m2 unknown
02:04 55.4 °F 48.2 °F 29.9 in NNW 1.9 mph 2.5 mph 78% 0 in 0.00 W/m2 unknown
02:09 55.4 °F 48.2 °F 29.9 in NNW 1.9 mph 3.7 mph 78% 0 in 0.00 W/m2 unknown
02:14 55.4 °F 50 °F 29.9 in NNW 1.9 mph 3.7 mph 78% 0 in 0.00 W/m2 unknown
02:19 55.4 °F 48.2 °F 29.9 in NNW 1.9 mph 3.7 mph 77% 0 in 0.00 W/m2 unknown
02:24 55.4 °F 48.2 °F 29.9 in NNW 1.9 mph 3.7 mph 78% 0 in 0.00 W/m2 unknown
02:29 55.4 °F 48.2 °F 29.9 in NW 1.2 mph 3.1 mph 79% 0 in 0.00 W/m2 unknown
02:34 55.4 °F 48.2 °F 29.9 in WNW 1.2 mph 2.5 mph 80% 0 in 0.00 W/m2 unknown
02:39 55.4 °F 48.2 °F 29.9 in WNW 1.2 mph 2.5 mph 80% 0 in 0.00 W/m2 unknown
02:43 53.6 °F 48.2 °F 29.9 in WNW 1.2 mph 2.5 mph 81% 0 in 0.00 W/m2 unknown
02:49 53.6 °F 48.2 °F 29.9 in WNW 1.2 mph 2.5 mph 81% 0 in 0.00 W/m2 unknown
02:54 53.6 °F 48.2 °F 29.9 in Calm   1.9 mph 81% 0 in 0.00 W/m2 unknown
02:59 53.6 °F 48.2 °F 29.9 in Calm     82% 0 in 0.00 W/m2 unknown
03:04 53.6 °F 48.2 °F 29.9 in Calm     82% 0 in 0.00 W/m2 unknown
03:09 53.6 °F 48.2 °F 29.9 in Calm     83% 0 in 0.00 W/m2 unknown
03:14 53.6 °F 48.2 °F 29.9 in Calm     83% 0 in 0.00 W/m2 unknown
03:19 53.6 °F 48.2 °F 29.9 in Calm     83% 0 in 0.00 W/m2 unknown
03:24 53.6 °F 48.2 °F 29.9 in Calm     83% 0 in 0.00 W/m2 unknown
03:29 53.6 °F 48.2 °F 29.9 in Calm     84% 0 in 0.00 W/m2 unknown
03:34 53.6 °F 48.2 °F 29.9 in Calm   1.2 mph 84% 0 in 0.00 W/m2 unknown
03:39 53.6 °F 48.2 °F 29.9 in NW 0.6 mph 1.2 mph 84% 0 in 0.00 W/m2 unknown
03:44 53.6 °F 50 °F 29.9 in NW 0.6 mph 2.5 mph 84% 0 in 0.00 W/m2 unknown
03:49 53.6 °F 50 °F 29.9 in NW 1.2 mph 2.5 mph 84% 0 in 0.00 W/m2 unknown
03:54 53.6 °F 48.2 °F 29.9 in NW 0.6 mph 1.2 mph 84% 0 in 0.00 W/m2 unknown
03:59 53.6 °F 48.2 °F 29.9 in SSW 3.1 mph 3.7 mph 84% 0 in 0.00 W/m2 unknown
04:02 53.6 °F 48.2 °F 29.9 in SSW 3.1 mph 3.7 mph 84% 0 in 0.00 W/m2 unknown
04:09 53.6 °F 48.2 °F 29.9 in South 3.1 mph 3.7 mph 84% 0 in 0.00 W/m2 unknown
04:13 53.6 °F 48.2 °F 29.9 in South 3.1 mph 3.7 mph 84% 0 in 0.00 W/m2 unknown
04:17 53.6 °F 48.2 °F 29.9 in SSW 1.9 mph 3.7 mph 84% 0 in 0.00 W/m2 unknown
04:23 53.6 °F 48.2 °F 29.9 in SSW 1.2 mph 3.1 mph 85% 0 in 0.00 W/m2 unknown
04:26 53.6 °F 48.2 °F 29.9 in SSW 1.2 mph 2.5 mph 85% 0 in 0.00 W/m2 unknown
04:33 53.6 °F 48.2 °F 29.9 in SSW 1.2 mph 2.5 mph 85% 0 in 0.00 W/m2 unknown
04:38 51.8 °F 48.2 °F 29.9 in SSW 1.2 mph 2.5 mph 86% 0 in 0.00 W/m2 unknown
04:43 51.8 °F 48.2 °F 29.9 in SSW 1.2 mph 2.5 mph 86% 0 in 0.00 W/m2 unknown
04:48 51.8 °F 48.2 °F 29.9 in SSW 1.2 mph 3.1 mph 86% 0 in 0.00 W/m2 unknown
04:53 51.8 °F 48.2 °F 29.9 in SSW 1.2 mph 3.7 mph 86% 0 in 0.00 W/m2 unknown
04:59 51.8 °F 48.2 °F 29.9 in SSW 1.9 mph 3.7 mph 86% 0 in 0.00 W/m2 unknown
05:03 51.8 °F 48.2 °F 29.9 in SSW 1.2 mph 2.5 mph 86% 0 in 0.00 W/m2 unknown
05:08 51.8 °F 48.2 °F 29.9 in SSW 1.2 mph 2.5 mph 86% 0 in 0.00 W/m2 unknown
05:14 51.8 °F 48.2 °F 29.9 in Calm   1.9 mph 86% 0 in 0.00 W/m2 unknown
05:19 51.8 °F 48.2 °F 29.9 in Calm   1.9 mph 86% 0 in 0.00 W/m2 unknown
05:24 51.8 °F 48.2 °F 29.9 in Calm   1.2 mph 86% 0 in 0.00 W/m2 unknown
05:29 51.8 °F 48.2 °F 29.9 in Calm   1.2 mph 86% 0 in 0.00 W/m2 unknown
05:34 51.8 °F 48.2 °F 29.9 in Calm   1.2 mph 86% 0 in 0.00 W/m2 unknown
05:39 51.8 °F 48.2 °F 29.9 in SW 1.2 mph 2.5 mph 86% 0 in 0.00 W/m2 unknown
05:44 51.8 °F 48.2 °F 29.9 in SW 1.9 mph 2.5 mph 86% 0 in 0.00 W/m2 unknown
05:49 51.8 °F 48.2 °F 29.9 in SW 1.9 mph 3.7 mph 87% 0 in 0.00 W/m2 unknown
05:54 51.8 °F 48.2 °F 29.9 in SW 1.9 mph 3.1 mph 87% 0 in 0.00 W/m2 unknown
05:59 50 °F 46.4 °F 29.9 in WSW 2.5 mph 3.7 mph 87% 0 in 0.00 W/m2 unknown
06:04 50 °F 46.4 °F 29.9 in WSW 3.1 mph 3.7 mph 87% 0 in 0.00 W/m2 unknown
06:09 50 °F 46.4 °F 29.9 in WSW 3.1 mph 3.7 mph 88% 0 in 0.00 W/m2 unknown
06:14 50 °F 46.4 °F 29.9 in West 2.5 mph 3.7 mph 88% 0 in 7.00 W/m2 unknown
06:19 50 °F 46.4 °F 29.9 in West 2.5 mph 3.7 mph 88% 0 in 9.00 W/m2 unknown
06:24 50 °F 46.4 °F 29.9 in West 1.9 mph 3.7 mph 88% 0 in 12.00 W/m2 unknown
06:29 50 °F 46.4 °F 29.9 in Calm   1.2 mph 88% 0 in 16.00 W/m2 unknown
06:34 50 °F 46.4 °F 29.9 in WNW 0.6 mph 2.5 mph 87% 0 in 19.00 W/m2 unknown
06:39 51.8 °F 48.2 °F 29.9 in NW 1.2 mph 2.5 mph 87% 0 in 23.00 W/m2 unknown
06:44 51.8 °F 48.2 °F 29.9 in NW 1.2 mph 2.5 mph 87% 0 in 33.00 W/m2 unknown
06:49 51.8 °F 48.2 °F 29.9 in WNW 1.2 mph 2.5 mph 87% 0 in 40.00 W/m2 unknown
06:54 51.8 °F 48.2 °F 29.9 in WNW 1.9 mph 2.5 mph 86% 0 in 47.00 W/m2 unknown
06:59 51.8 °F 48.2 °F 29.9 in WNW 1.2 mph 2.5 mph 86% 0 in 56.00 W/m2 unknown
07:04 51.8 °F 48.2 °F 29.9 in WNW 1.2 mph 1.9 mph 85% 0 in 65.00 W/m2 unknown
07:09 51.8 °F 48.2 °F 29.9 in WNW 0.6 mph 1.2 mph 85% 0 in 76.00 W/m2 unknown
07:14 51.8 °F 48.2 °F 29.9 in Calm   1.2 mph 85% 0 in 88.00 W/m2 unknown
07:19 53.6 °F 48.2 °F 29.9 in Calm   1.2 mph 85% 0 in 100.00 W/m2 unknown
07:24 53.6 °F 48.2 °F 29.9 in West 0.6 mph 2.5 mph 84% 0 in 114.00 W/m2 unknown
07:29 53.6 °F 48.2 °F 29.9 in West 1.2 mph 1.9 mph 84% 0 in 127.00 W/m2 unknown
07:34 53.6 °F 50 °F 29.9 in Calm   1.2 mph 84% 0 in 142.00 W/m2 unknown
07:39 55.4 °F 50 °F 29.9 in West 0.6 mph 1.2 mph 84% 0 in 160.00 W/m2 unknown
07:44 55.4 °F 50 °F 29.9 in West 1.2 mph 1.2 mph 83% 0 in 165.00 W/m2 unknown
07:49 55.4 °F 50 °F 29.9 in West 1.2 mph 2.5 mph 83% 0 in 188.00 W/m2 unknown
07:54 55.4 °F 50 °F 29.9 in SW 1.9 mph 2.5 mph 83% 0 in 202.00 W/m2 unknown
07:59 57.2 °F 51.8 °F 29.9 in SW 1.2 mph 2.5 mph 83% 0 in 216.00 W/m2 unknown
08:04 57.2 °F 51.8 °F 29.9 in Calm   1.9 mph 82% 0 in 227.00 W/m2 unknown
08:09 57.2 °F 51.8 °F 29.9 in WSW 0.6 mph 1.2 mph 81% 0 in 243.00 W/m2 unknown
08:14 59 °F 51.8 °F 30 in West 0.6 mph 1.2 mph 80% 0 in 251.00 W/m2 unknown
08:19 59 °F 51.8 °F 30 in WNW 1.2 mph 1.2 mph 79% 0 in 250.00 W/m2 unknown
08:24 59 °F 51.8 °F 30 in NNW 0.6 mph 2.5 mph 79% 0 in 283.00 W/m2 unknown
08:29 59 °F 51.8 °F 30 in NE 1.2 mph 2.5 mph 78% 0 in 301.00 W/m2 unknown
08:34 60.8 °F 53.6 °F 30 in East 1.2 mph 2.5 mph 79% 0 in 315.00 W/m2 unknown
08:39 60.8 °F 53.6 °F 30 in East 1.2 mph 1.9 mph 79% 0 in 330.00 W/m2 unknown
08:44 60.8 °F 53.6 °F 30 in Calm   1.2 mph 78% 0 in 341.00 W/m2 unknown
08:49 60.8 °F 53.6 °F 30 in NNE 1.2 mph 2.5 mph 77% 0 in 353.00 W/m2 unknown
08:54 62.6 °F 53.6 °F 30 in NE 2.5 mph 3.7 mph 76% 0 in 380.00 W/m2 unknown
08:59 62.6 °F 53.6 °F 30 in NE 1.9 mph 3.7 mph 75% 0 in 396.00 W/m2 unknown
09:04 62.6 °F 53.6 °F 30 in NNE 1.9 mph 3.7 mph 74% 0 in 410.00 W/m2 unknown
09:09 64.4 °F 53.6 °F 30 in NE 3.7 mph 5 mph 73% 0 in 425.00 W/m2 unknown
09:14 64.4 °F 55.4 °F 30 in NNE 3.1 mph 5 mph 72% 0 in 436.00 W/m2 unknown
09:19 64.4 °F 55.4 °F 30 in ENE 3.1 mph 5 mph 72% 0 in 448.00 W/m2 unknown
09:24 64.4 °F 53.6 °F 30 in East 4.3 mph 6.2 mph 70% 0 in 459.00 W/m2 unknown
09:29 64.4 °F 53.6 °F 30 in East 4.3 mph 5.6 mph 67% 0 in 462.00 W/m2 unknown
09:34 64.4 °F 53.6 °F 30 in East 3.7 mph 6.2 mph 68% 0 in 485.00 W/m2 unknown
09:39 64.4 °F 53.6 °F 30 in East 5.6 mph 8.1 mph 67% 0 in 503.00 W/m2 unknown
09:44 66.2 °F 55.4 °F 30 in ENE 6.2 mph 10.6 mph 68% 0 in 515.00 W/m2 unknown
09:49 66.2 °F 55.4 °F 30 in ENE 6.2 mph 9.9 mph 68% 0 in 527.00 W/m2 unknown
09:54 66.2 °F 55.4 °F 30 in NE 5 mph 6.8 mph 66% 0 in 548.00 W/m2 unknown
09:59 66.2 °F 53.6 °F 30 in ENE 2.5 mph 6.2 mph 64% 0 in 564.00 W/m2 unknown
10:04 66.2 °F 55.4 °F 30 in ENE 3.1 mph 6.2 mph 66% 0 in 563.00 W/m2 unknown
10:09 66.2 °F 55.4 °F 30 in East 4.3 mph 6.8 mph 66% 0 in 573.00 W/m2 unknown
10:14 66.2 °F 55.4 °F 30 in ESE 4.3 mph 6.8 mph 65% 0 in 594.00 W/m2 unknown
10:19 68 °F 55.4 °F 30 in East 6.2 mph 8.7 mph 65% 0 in 605.00 W/m2 unknown
10:24 68 °F 55.4 °F 30 in ESE 6.2 mph 8.7 mph 65% 0 in 615.00 W/m2 unknown
10:29 68 °F 55.4 °F 30 in ESE 5 mph 9.3 mph 66% 0 in 621.00 W/m2 unknown
10:33 68 °F 55.4 °F 30 in ESE 3.1 mph 8.7 mph 64% 0 in 585.00 W/m2 unknown
10:39 68 °F 55.4 °F 30 in East 6.8 mph 10.6 mph 65% 0 in 621.00 W/m2 unknown
10:44 68 °F 55.4 °F 30 in East 6.2 mph 10.6 mph 65% 0 in 631.00 W/m2 unknown
10:49 68 °F 55.4 °F 30 in ESE 6.2 mph 9.9 mph 63% 0 in 643.00 W/m2 unknown
10:54 68 °F 55.4 °F 30 in ESE 6.2 mph 9.3 mph 63% 0 in 643.00 W/m2 unknown
10:59 68 °F 55.4 °F 30 in East 6.2 mph 10.6 mph 64% 0 in 652.00 W/m2 unknown
11:04 68 °F 55.4 °F 30 in East 6.8 mph 10.6 mph 63% 0 in 659.00 W/m2 unknown
11:09 69.8 °F 55.4 °F 30 in ENE 6.2 mph 9.9 mph 63% 0 in 659.00 W/m2 unknown
11:14 69.8 °F 57.2 °F 30 in NE 5 mph 6.8 mph 65% 0 in 636.00 W/m2 unknown
11:19 69.8 °F 57.2 °F 30 in NE 5.6 mph 11.8 mph 65% 0 in 608.00 W/m2 unknown
11:24 69.8 °F 55.4 °F 30 in ENE 6.8 mph 11.8 mph 61% 0 in 663.00 W/m2 unknown
11:29 69.8 °F 55.4 °F 30 in ESE 6.2 mph 11.8 mph 60% 0 in 666.00 W/m2 unknown
11:34 69.8 °F 55.4 °F 30 in East 5.6 mph 9.3 mph 60% 0 in 677.00 W/m2 unknown
11:39 69.8 °F 55.4 °F 30 in East 5 mph 8.7 mph 59% 0 in 654.00 W/m2 unknown
11:44 69.8 °F 55.4 °F 30 in East 5.6 mph 8.1 mph 59% 0 in 654.00 W/m2 unknown
11:49 69.8 °F 55.4 °F 30 in ESE 5.6 mph 8.1 mph 59% 0 in 664.00 W/m2 unknown
11:54 71.6 °F 57.2 °F 30 in ENE 4.3 mph 8.1 mph 61% 0 in 679.00 W/m2 unknown
11:59 71.6 °F 57.2 °F 30 in East 6.2 mph 8.1 mph 60% 0 in 675.00 W/m2 unknown
12:04 71.6 °F 55.4 °F 30 in ENE 6.8 mph 8.1 mph 59% 0 in 671.00 W/m2 unknown
12:09 71.6 °F 55.4 °F 30 in East 3.1 mph 8.1 mph 59% 0 in 666.00 W/m2 unknown
12:14 71.6 °F 55.4 °F 30 in ESE 3.1 mph 6.8 mph 59% 0 in 670.00 W/m2 unknown
12:19 71.6 °F 55.4 °F 30 in East 3.1 mph 5 mph 57% 0 in 689.00 W/m2 unknown
12:24 71.6 °F 55.4 °F 30 in SSE 4.3 mph 6.2 mph 56% 0 in 703.00 W/m2 unknown
12:29 71.6 °F 55.4 °F 30 in South 4.3 mph 8.1 mph 57% 0 in 745.00 W/m2 unknown
12:34 71.6 °F 55.4 °F 30 in ENE 6.8 mph 8.1 mph 57% 0 in 754.00 W/m2 unknown
12:39 71.6 °F 55.4 °F 30 in East 6.2 mph 9.3 mph 57% 0 in 754.00 W/m2 unknown
12:44 71.6 °F 57.2 °F 30 in ESE 6.2 mph 8.7 mph 59% 0 in 719.00 W/m2 unknown
12:49 71.6 °F 57.2 °F 30 in ESE 3.7 mph 8.1 mph 59% 0 in 566.00 W/m2 unknown
12:54 71.6 °F 55.4 °F 30 in East 4.3 mph 6.8 mph 56% 0 in 566.00 W/m2 unknown
12:59 71.6 °F 55.4 °F 29.9 in SE 4.3 mph 8.1 mph 56% 0 in 687.00 W/m2 unknown
13:04 71.6 °F 55.4 °F 29.9 in ESE 5.6 mph 9.3 mph 56% 0 in 726.00 W/m2 unknown
13:09 71.6 °F 55.4 °F 29.9 in ESE 3.1 mph 9.3 mph 56% 0 in 749.00 W/m2 unknown
13:14 71.6 °F 57.2 °F 29.9 in ESE 5 mph 6.8 mph 59% 0 in 881.00 W/m2 unknown
13:19 73.4 °F 55.4 °F 29.9 in ESE 5 mph 6.8 mph 56% 0 in 893.00 W/m2 unknown
13:24 73.4 °F 53.6 °F 29.9 in East 5 mph 8.1 mph 53% 0 in 893.00 W/m2 unknown
13:29 71.6 °F 55.4 °F 29.9 in SSE 3.1 mph 8.1 mph 56% 0 in 288.00 W/m2 unknown
13:34 71.6 °F 55.4 °F 29.9 in ENE 4.3 mph 6.8 mph 56% 0 in 278.00 W/m2 unknown
13:39 71.6 °F 55.4 °F 29.9 in East 5 mph 9.9 mph 56% 0 in 322.00 W/m2 unknown
13:44 73.4 °F 55.4 °F 29.9 in East 6.2 mph 11.8 mph 54% 0 in 870.00 W/m2 unknown
13:49 73.4 °F 55.4 °F 29.9 in East 5.6 mph 11.8 mph 53% 0 in 874.00 W/m2 unknown
13:54 73.4 °F 53.6 °F 29.9 in East 5 mph 8.7 mph 52% 0 in 295.00 W/m2 unknown
13:59 71.6 °F 53.6 °F 29.9 in ESE 8.7 mph 10.6 mph 54% 0 in 316.00 W/m2 unknown
14:04 71.6 °F 53.6 °F 29.9 in East 8.7 mph 10.6 mph 53% 0 in 338.00 W/m2 unknown
14:09 73.4 °F 53.6 °F 29.9 in ENE 6.8 mph 9.9 mph 52% 0 in 814.00 W/m2 unknown
14:14 73.4 °F 53.6 °F 29.9 in ENE 5 mph 10.6 mph 52% 0 in 789.00 W/m2 unknown
14:19 71.6 °F 53.6 °F 29.9 in ESE 5 mph 10.6 mph 53% 0 in 230.00 W/m2 unknown
14:24 71.6 °F 53.6 °F 29.9 in ENE 5 mph 9.9 mph 52% 0 in 248.00 W/m2 unknown
14:29 71.6 °F 53.6 °F 29.9 in ENE 5 mph 6.8 mph 51% 0 in 577.00 W/m2 unknown
14:34 71.6 °F 51.8 °F 29.9 in ENE 3.7 mph 6.8 mph 49% 0 in 258.00 W/m2 unknown
14:39 73.4 °F 51.8 °F 29.9 in ESE 7.5 mph 9.3 mph 49% 0 in 687.00 W/m2 unknown
14:44 73.4 °F 53.6 °F 29.9 in ESE 7.5 mph 9.3 mph 51% 0 in 740.00 W/m2 unknown
14:49 73.4 °F 53.6 °F 29.9 in East 6.2 mph 8.7 mph 51% 0 in 751.00 W/m2 unknown
14:54 75.2 °F 53.6 °F 29.9 in ENE 5.6 mph 8.1 mph 49% 0 in 754.00 W/m2 unknown
14:59 75.2 °F 53.6 °F 29.9 in East 6.2 mph 8.1 mph 48% 0 in 754.00 W/m2 unknown
15:04 73.4 °F 53.6 °F 29.9 in ESE 5 mph 8.1 mph 48% 0 in 701.00 W/m2 unknown
15:09 73.4 °F 51.8 °F 29.9 in ESE 5.6 mph 8.1 mph 47% 0 in 673.00 W/m2 unknown
15:14 75.2 °F 53.6 °F 29.9 in SE 6.2 mph 10.6 mph 47% 0 in 689.00 W/m2 unknown
15:19 75.2 °F 51.8 °F 29.9 in SSE 5.6 mph 9.9 mph 45% 0 in 671.00 W/m2 unknown
15:24 75.2 °F 51.8 °F 29.9 in East 5 mph 8.1 mph 46% 0 in 640.00 W/m2 unknown
15:29 75.2 °F 55.4 °F 29.9 in East 5 mph 8.1 mph 50% 0 in 608.00 W/m2 unknown
15:34 75.2 °F 55.4 °F 29.9 in East 5.6 mph 8.1 mph 50% 0 in 610.00 W/m2 unknown
15:39 75.2 °F 53.6 °F 29.9 in ENE 5 mph 8.7 mph 47% 0 in 610.00 W/m2 unknown
15:44 75.2 °F 51.8 °F 29.9 in ENE 5.6 mph 9.3 mph 44% 0 in 577.00 W/m2 unknown
15:49 75.2 °F 51.8 °F 29.9 in East 5 mph 8.7 mph 44% 0 in 550.00 W/m2 unknown
15:54 75.2 °F 51.8 °F 29.9 in SSE 3.7 mph 6.8 mph 45% 0 in 550.00 W/m2 unknown
15:59 75.2 °F 53.6 °F 29.9 in ESE 6.8 mph 9.3 mph 47% 0 in 513.00 W/m2 unknown
16:04 75.2 °F 51.8 °F 29.9 in SE 6.2 mph 8.7 mph 47% 0 in 476.00 W/m2 unknown
16:09 73.4 °F 51.8 °F 29.9 in SE 5 mph 8.1 mph 47% 0 in 448.00 W/m2 unknown
16:14 73.4 °F 51.8 °F 29.9 in SE 3.7 mph 6.8 mph 47% 0 in 441.00 W/m2 unknown
16:19 75.2 °F 51.8 °F 29.9 in SSE 3.7 mph 6.8 mph 47% 0 in 394.00 W/m2 unknown
16:24 75.2 °F 51.8 °F 29.9 in ESE 3.7 mph 5 mph 47% 0 in 396.00 W/m2 unknown
16:29 73.4 °F 51.8 °F 29.9 in ESE 4.3 mph 6.8 mph 47% 0 in 394.00 W/m2 unknown
16:34 75.2 °F 53.6 °F 29.9 in NNE 3.1 mph 6.8 mph 49% 0 in 385.00 W/m2 unknown
16:39 75.2 °F 53.6 °F 29.9 in ESE 2.5 mph 5 mph 48% 0 in 352.00 W/m2 unknown
16:44 73.4 °F 51.8 °F 29.9 in SSW 5.6 mph 6.8 mph 46% 0 in 348.00 W/m2 unknown
16:49 73.4 °F 53.6 °F 29.9 in SW 5 mph 6.8 mph 48% 0 in 332.00 W/m2 unknown
16:54 73.4 °F 53.6 °F 29.9 in SSE 4.3 mph 6.2 mph 48% 0 in 311.00 W/m2 unknown
16:59 73.4 °F 53.6 °F 29.9 in South 3.7 mph 6.2 mph 48% 0 in 301.00 W/m2 unknown
17:04 73.4 °F 51.8 °F 29.9 in SW 3.1 mph 5 mph 48% 0 in 264.00 W/m2 unknown
17:09 73.4 °F 51.8 °F 29.9 in SSW 3.1 mph 3.7 mph 47% 0 in 243.00 W/m2 unknown
17:14 73.4 °F 53.6 °F 29.9 in SSE 3.1 mph 5 mph 49% 0 in 243.00 W/m2 unknown
17:19 73.4 °F 53.6 °F 29.9 in SE 3.1 mph 5 mph 50% 0 in 250.00 W/m2 unknown
17:24 73.4 °F 53.6 °F 29.9 in SE 2.5 mph 5 mph 50% 0 in 258.00 W/m2 unknown
17:29 73.4 °F 51.8 °F 29.9 in South 2.5 mph 3.7 mph 49% 0 in 258.00 W/m2 unknown
17:34 73.4 °F 51.8 °F 29.9 in SSW 1.2 mph 3.1 mph 49% 0 in 221.00 W/m2 unknown
17:39 73.4 °F 53.6 °F 29.9 in SSW 3.7 mph 6.2 mph 49% 0 in 220.00 W/m2 unknown
17:44 73.4 °F 53.6 °F 29.9 in SSE 3.1 mph 6.2 mph 48% 0 in 211.00 W/m2 unknown
17:49 73.4 °F 51.8 °F 29.9 in SSW 5.6 mph 6.8 mph 47% 0 in 186.00 W/m2 unknown
17:54 73.4 °F 51.8 °F 29.9 in South 5 mph 6.8 mph 47% 0 in 178.00 W/m2 unknown
17:59 73.4 °F 51.8 °F 29.9 in SSW 3.1 mph 6.2 mph 47% 0 in 167.00 W/m2 unknown
18:04 73.4 °F 51.8 °F 29.9 in SW 2.5 mph 3.7 mph 47% 0 in 156.00 W/m2 unknown
18:09 73.4 °F 53.6 °F 29.9 in SSW 3.1 mph 6.2 mph 49% 0 in 149.00 W/m2 unknown
18:14 73.4 °F 51.8 °F 29.9 in South 4.3 mph 6.2 mph 49% 0 in 149.00 W/m2 unknown
18:19 73.4 °F 53.6 °F 29.9 in South 3.1 mph 6.2 mph 51% 0 in 146.00 W/m2 unknown
18:24 73.4 °F 53.6 °F 29.9 in SSW 3.7 mph 6.2 mph 50% 0 in 142.00 W/m2 unknown
18:29 73.4 °F 51.8 °F 29.9 in SSW 5 mph 6.8 mph 49% 0 in 134.00 W/m2 unknown
18:34 73.4 °F 51.8 °F 29.9 in SW 5 mph 6.8 mph 49% 0 in 127.00 W/m2 unknown
18:39 73.4 °F 51.8 °F 29.9 in SSW 5 mph 6.8 mph 49% 0 in 120.00 W/m2 unknown
18:44 71.6 °F 53.6 °F 29.9 in SW 5 mph 6.8 mph 50% 0 in 113.00 W/m2 unknown
18:49 71.6 °F 53.6 °F 29.9 in SSW 5.6 mph 8.1 mph 50% 0 in 104.00 W/m2 unknown
18:54 71.6 °F 51.8 °F 29.9 in SSW 6.2 mph 8.1 mph 50% 0 in 95.00 W/m2 unknown
18:59 71.6 °F 51.8 °F 29.9 in SW 5 mph 8.1 mph 50% 0 in 88.00 W/m2 unknown
19:04 71.6 °F 53.6 °F 29.9 in SW 3.7 mph 5 mph 51% 0 in 81.00 W/m2 unknown
19:09 71.6 °F 53.6 °F 29.9 in SW 3.1 mph 5 mph 53% 0 in 76.00 W/m2 unknown
19:14 71.6 °F 53.6 °F 29.9 in SW 3.1 mph 5 mph 52% 0 in 70.00 W/m2 unknown
19:19 71.6 °F 53.6 °F 29.9 in SW 1.9 mph 5 mph 54% 0 in 65.00 W/m2 unknown
19:24 71.6 °F 53.6 °F 29.9 in SW 2.5 mph 3.7 mph 53% 0 in 58.00 W/m2 unknown
19:29 71.6 °F 53.6 °F 29.9 in West 10.6 mph 14.9 mph 53% 0 in 46.00 W/m2 unknown
19:34 69.8 °F 51.8 °F 29.9 in West 12.4 mph 17.4 mph 56% 0 in 37.00 W/m2 unknown
19:39 68 °F 51.8 °F 29.9 in West 11.8 mph 17.4 mph 56% 0 in 30.00 W/m2 unknown
19:44 68 °F 51.8 °F 29.9 in West 11.2 mph 14.3 mph 57% 0 in 25.00 W/m2 unknown
19:49 66.2 °F 51.8 °F 29.9 in West 10.6 mph 14.3 mph 57% 0 in 23.00 W/m2 unknown
19:54 66.2 °F 50 °F 29.9 in WNW 8.7 mph 14.3 mph 57% 0 in 21.00 W/m2 unknown
19:59 66.2 °F 50 °F 29.9 in West 8.7 mph 14.3 mph 58% 0 in 18.00 W/m2 unknown
20:04 66.2 °F 50 °F 29.9 in West 8.1 mph 11.8 mph 58% 0 in 14.00 W/m2 unknown
20:09 64.4 °F 50 °F 29.9 in West 6.8 mph 11.8 mph 59% 0 in 11.00 W/m2 unknown
20:14 64.4 °F 50 °F 29.9 in West 6.8 mph 10.6 mph 60% 0 in 7.00 W/m2 unknown
20:19 64.4 °F 51.8 °F 29.9 in West 6.8 mph 9.9 mph 61% 0 in 0.00 W/m2 unknown
20:24 64.4 °F 50 °F 29.9 in West 6.2 mph 8.1 mph 60% 0 in 0.00 W/m2 unknown
20:29 64.4 °F 50 °F 29.9 in West 5 mph 8.1 mph 60% 0 in 0.00 W/m2 unknown
20:34 64.4 °F 50 °F 29.9 in West 6.2 mph 8.1 mph 60% 0 in 0.00 W/m2 unknown
20:39 64.4 °F 50 °F 29.9 in WNW 6.2 mph 8.1 mph 60% 0 in 0.00 W/m2 unknown
20:44 64.4 °F 50 °F 30 in WNW 5 mph 6.8 mph 61% 0 in 0.00 W/m2 unknown
20:49 64.4 °F 50 °F 30 in West 5 mph 6.8 mph 61% 0 in 0.00 W/m2 unknown
20:54 64.4 °F 50 °F 30 in WSW 3.7 mph 5 mph 63% 0 in 0.00 W/m2 unknown
20:59 62.6 °F 50 °F 30 in SW 3.7 mph 5 mph 63% 0 in 0.00 W/m2 unknown
21:04 62.6 °F 50 °F 30 in SW 3.7 mph 5 mph 63% 0 in 0.00 W/m2 unknown
21:09 62.6 °F 50 °F 30 in West 5 mph 5.6 mph 64% 0 in 0.00 W/m2 unknown
21:14 62.6 °F 50 °F 30 in WSW 5 mph 6.2 mph 65% 0 in 0.00 W/m2 unknown
21:19 62.6 °F 50 °F 30 in WSW 5 mph 5 mph 65% 0 in 0.00 W/m2 unknown
21:24 62.6 °F 50 °F 30 in WSW 3.7 mph 5 mph 66% 0 in 0.00 W/m2 unknown
21:29 60.8 °F 50 °F 30 in WSW 3.7 mph 5 mph 67% 0 in 0.00 W/m2 unknown
21:34 60.8 °F 50 °F 30 in WSW 3.7 mph 5 mph 67% 0 in 0.00 W/m2 unknown
21:39 60.8 °F 50 °F 30 in WSW 3.1 mph 5 mph 67% 0 in 0.00 W/m2 unknown
21:44 60.8 °F 50 °F 30 in WSW 3.1 mph 5 mph 68% 0 in 0.00 W/m2 unknown
21:49 60.8 °F 50 °F 30 in WSW 3.7 mph 3.7 mph 68% 0 in 0.00 W/m2 unknown
21:54 60.8 °F 50 °F 30 in West 5 mph 6.8 mph 68% 0 in 0.00 W/m2 unknown
21:59 60.8 °F 50 °F 30 in West 5 mph 6.8 mph 68% 0 in 0.00 W/m2 unknown
22:04 60.8 °F 50 °F 30 in WNW 5 mph 6.8 mph 68% 0 in 0.00 W/m2 unknown
22:09 60.8 °F 50 °F 30 in West 4.3 mph 6.2 mph 67% 0 in 0.00 W/m2 unknown
22:14 62.6 °F 50 °F 30 in WNW 4.3 mph 6.2 mph 67% 0 in 0.00 W/m2 unknown
22:19 62.6 °F 50 °F 30 in West 3.7 mph 5 mph 67% 0 in 0.00 W/m2 unknown
22:24 62.6 °F 51.8 °F 30 in West 3.7 mph 5 mph 68% 0 in 0.00 W/m2 unknown
22:29 60.8 °F 51.8 °F 30 in West 3.7 mph 5 mph 69% 0 in 0.00 W/m2 unknown
22:34 60.8 °F 51.8 °F 30 in West 3.1 mph 5 mph 70% 0 in 0.00 W/m2 unknown
22:39 60.8 °F 51.8 °F 30 in WSW 2.5 mph 5 mph 71% 0 in 0.00 W/m2 unknown
22:44 60.8 °F 50 °F 30 in WSW 1.9 mph 3.7 mph 71% 0 in 0.00 W/m2 unknown
22:49 60.8 °F 50 °F 30 in WSW 1.9 mph 3.7 mph 72% 0 in 0.00 W/m2 unknown
22:54 59 °F 50 °F 30 in West 1.9 mph 3.7 mph 72% 0 in 0.00 W/m2 unknown
22:59 59 °F 50 °F 30 in West 1.9 mph 3.7 mph 72% 0 in 0.00 W/m2 unknown
23:04 60.8 °F 51.8 °F 30 in WSW 2.5 mph 3.7 mph 73% 0 in 0.00 W/m2 unknown
23:09 59 °F 51.8 °F 30 in WSW 2.5 mph 3.7 mph 73% 0 in 0.00 W/m2 unknown
23:14 59 °F 51.8 °F 30 in WSW 3.1 mph 3.7 mph 74% 0 in 0.00 W/m2 unknown
23:19 59 °F 51.8 °F 30 in SW 2.5 mph 3.7 mph 75% 0 in 0.00 W/m2 unknown
23:24 59 °F 51.8 °F 30 in SW 2.5 mph 3.7 mph 75% 0 in 0.00 W/m2 unknown
23:29 59 °F 51.8 °F 30 in SW 2.5 mph 3.7 mph 75% 0 in 0.00 W/m2 unknown
23:34 59 °F 51.8 °F 30 in SW 2.5 mph 3.7 mph 75% 0 in 0.00 W/m2 unknown
23:39 59 °F 51.8 °F 30 in SSW 3.7 mph 3.7 mph 75% 0 in 0.00 W/m2 unknown
23:44 59 °F 51.8 °F 30 in SSW 3.7 mph 3.7 mph 75% 0 in 0.00 W/m2 unknown
23:49 59 °F 51.8 °F 30 in SW 1.9 mph 3.7 mph 76% 0 in 0.00 W/m2 unknown
23:54 59 °F 51.8 °F 30 in SW 2.5 mph 3.7 mph 76% 0 in 0.00 W/m2 unknown
23:59 59 °F 51.8 °F 30 in WSW 3.1 mph 3.7 mph 77% 0 in 0.00 W/m2 unknown
Stazione Meteorologica MeteoMincio Rivalta s/M (MN)
Con i complimenti di Weather Underground - 4 mb



METEO PILLOLE
Il luogo più nebbioso degli USA
Cape Disappointment - Washington
Per 2552 ore (106 giorni) all'anno in media è avvolto da nebbia fitta.
Share

Non seguire questo link o sarai bannato dal sito!